Time;durP1;ratioP1;P1;durP2;ratioP2;P2;SDS_P1;SDS_P2;PMS_P1;PMS_P2;Temp;Humidity;BMP_temperature;BMP_pressure;BME280_temperature;BME280_humidity;BME280_pressure;Samples;Min_cycle;Max_cycle;Signal;HPM_P1;HPM_P2
2024/02/09 00:00:23;;;;;;;34.60;17.30;;;10.30;99.90;;;;;;4912035;28;37961;-80
2024/02/09 00:02:49;;;;;;;50.70;20.03;;;10.30;99.90;;;;;;4910537;29;38366;-80
2024/02/09 00:05:17;;;;;;;44.43;19.00;;;10.20;99.90;;;;;;4909134;29;36436;-80
2024/02/09 00:07:51;;;;;;;46.53;18.67;;;10.20;99.90;;;;;;4914940;29;37869;-79
2024/02/09 00:10:20;;;;;;;33.00;18.00;;;10.20;99.90;;;;;;4914348;28;38735;-79
2024/02/09 00:12:55;;;;;;;41.93;18.60;;;10.20;99.90;;;;;;4910293;29;38514;-79
2024/02/09 00:15:21;;;;;;;39.43;17.57;;;10.20;99.90;;;;;;4920552;28;36298;-79
2024/02/09 00:17:48;;;;;;;35.67;16.87;;;10.20;99.90;;;;;;4912325;29;38008;-79
2024/02/09 00:20:14;;;;;;;44.50;17.93;;;10.20;99.90;;;;;;4912370;28;38545;-79
2024/02/09 00:22:40;;;;;;;46.70;21.00;;;10.20;99.90;;;;;;4915280;29;37236;-80
2024/02/09 00:25:10;;;;;;;42.83;17.60;;;10.20;99.90;;;;;;4916695;29;36843;-80
2024/02/09 00:27:37;;;;;;;41.63;17.03;;;10.30;99.90;;;;;;4912143;29;38963;-80
2024/02/09 00:30:07;;;;;;;43.97;20.73;;;10.30;99.90;;;;;;4916331;28;38460;-80
2024/02/09 00:32:34;;;;;;;39.00;18.03;;;10.30;99.90;;;;;;4912204;29;47467;-79
2024/02/09 00:35:01;;;;;;;46.60;20.13;;;10.30;99.90;;;;;;4914921;28;38077;-80
2024/02/09 00:37:27;;;;;;;36.73;18.10;;;10.30;99.90;;;;;;4918285;28;40109;-80
2024/02/09 00:39:54;;;;;;;40.63;18.73;;;10.30;99.90;;;;;;4913387;29;40444;-79
2024/02/09 00:42:20;;;;;;;38.10;18.53;;;10.30;99.90;;;;;;4916772;29;37049;-79
2024/02/09 00:44:46;;;;;;;37.73;19.23;;;10.30;99.90;;;;;;4919012;29;36566;-78
2024/02/09 00:47:13;;;;;;;41.50;19.00;;;10.30;99.90;;;;;;4914205;28;37807;-79
2024/02/09 00:49:45;;;;;;;42.07;18.80;;;10.30;99.90;;;;;;4916079;29;38288;-79
2024/02/09 00:52:12;;;;;;;43.53;19.15;;;10.30;99.90;;;;;;4915936;29;38077;-79
2024/02/09 00:54:38;;;;;;;43.93;17.00;;;10.30;99.90;;;;;;4914065;29;38025;-80
2024/02/09 00:57:05;;;;;;;37.43;17.40;;;10.30;99.90;;;;;;4910796;29;37274;-80
2024/02/09 00:59:33;;;;;;;40.40;18.47;;;10.30;99.90;;;;;;4912614;29;37472;-79
2024/02/09 01:02:01;;;;;;;36.10;17.83;;;10.30;99.90;;;;;;4916070;29;37546;-79
2024/02/09 01:04:27;;;;;;;32.77;17.23;;;10.40;99.90;;;;;;4914265;29;47581;-79
2024/02/09 01:06:55;;;;;;;42.57;18.63;;;10.30;99.90;;;;;;4909251;28;38733;-79
2024/02/09 01:09:23;;;;;;;39.23;18.17;;;10.40;99.90;;;;;;4915345;28;37342;-79
2024/02/09 01:11:49;;;;;;;41.27;17.80;;;10.40;99.90;;;;;;4916682;29;38683;-79
2024/02/09 02:44:57;;;;;;;22.83;8.70;;;10.50;99.90;;;;;;4896903;29;40011;-80
2024/02/09 02:47:23;;;;;;;18.57;7.97;;;10.50;99.90;;;;;;4891910;29;38725;-79
2024/02/09 03:06:22;;;;;;;22.30;9.40;;;10.50;99.90;;;;;;4892796;29;39658;-79
2024/02/09 03:08:48;;;;;;;21.80;8.97;;;10.50;99.90;;;;;;4893692;29;38207;-80
2024/02/09 03:11:14;;;;;;;15.53;9.40;;;10.50;99.90;;;;;;4892571;29;38578;-79
2024/02/09 03:13:42;;;;;;;14.43;9.07;;;10.50;99.90;;;;;;4895135;29;37603;-79
2024/02/09 03:16:08;;;;;;;23.13;9.67;;;10.60;99.90;;;;;;4890089;29;40448;-81
2024/02/09 03:18:34;;;;;;;19.10;9.77;;;10.50;99.90;;;;;;4889414;29;38260;-79
2024/02/09 03:21:00;;;;;;;22.43;9.30;;;10.50;99.90;;;;;;4888364;29;36859;-79
2024/02/09 03:23:28;;;;;;;19.13;9.63;;;10.50;99.90;;;;;;4886746;29;46547;-80
2024/02/09 03:25:55;;;;;;;22.47;9.50;;;10.50;99.90;;;;;;4888914;29;39452;-80
2024/02/09 03:28:21;;;;;;;20.87;9.23;;;10.50;99.90;;;;;;4887808;29;38600;-80
2024/02/09 03:30:47;;;;;;;15.53;9.00;;;10.50;99.90;;;;;;4887526;29;37650;-80
2024/02/09 03:33:13;;;;;;;22.97;9.53;;;10.50;99.90;;;;;;4890926;29;36120;-80
2024/02/09 03:35:40;;;;;;;21.63;10.33;;;10.50;99.90;;;;;;4890107;29;38050;-80
2024/02/09 03:38:14;;;;;;;12.67;7.93;;;10.50;99.90;;;;;;4893769;29;37431;-80
2024/02/09 03:40:41;;;;;;;16.07;8.53;;;10.50;99.90;;;;;;4892000;29;36969;-80
2024/02/09 03:43:08;;;;;;;14.23;8.07;;;10.60;99.90;;;;;;4891638;29;37044;-79
2024/02/09 03:45:34;;;;;;;17.20;8.60;;;10.50;99.90;;;;;;4883951;29;37421;-79
2024/02/09 03:48:00;;;;;;;15.63;9.23;;;10.60;99.90;;;;;;4885776;29;38073;-80
2024/02/09 03:50:26;;;;;;;14.13;9.00;;;10.60;99.90;;;;;;4901649;29;46645;-80
2024/02/09 03:52:52;;;;;;;13.97;7.77;;;10.60;99.90;;;;;;4900714;29;35801;-81
2024/02/09 03:55:19;;;;;;;13.10;7.83;;;10.60;99.90;;;;;;4879505;29;38579;-79
2024/02/09 03:57:45;;;;;;;16.30;6.73;;;10.60;99.90;;;;;;4897406;29;38560;-80
2024/02/09 04:00:15;;;;;;;11.30;6.20;;;10.60;99.90;;;;;;4900324;29;38002;-80
2024/02/09 04:02:45;;;;;;;13.73;6.60;;;10.60;99.90;;;;;;4887555;29;38441;-80
2024/02/09 04:05:12;;;;;;;11.70;5.70;;;10.60;99.90;;;;;;4895284;29;37736;-80
2024/02/09 04:07:38;;;;;;;15.73;6.30;;;10.60;99.90;;;;;;4892924;29;39754;-80
2024/02/09 04:10:13;;;;;;;10.67;5.57;;;10.60;99.90;;;;;;4884882;29;36885;-81
2024/02/09 04:12:40;;;;;;;12.83;6.13;;;10.60;99.90;;;;;;4904496;29;38134;-80
2024/02/09 04:15:06;;;;;;;12.67;5.57;;;10.60;99.90;;;;;;4894449;29;38847;-80
2024/02/09 04:17:32;;;;;;;12.33;6.07;;;10.60;99.90;;;;;;4894044;29;38696;-80
2024/02/09 04:19:58;;;;;;;11.97;5.70;;;10.60;99.90;;;;;;4898261;29;37918;-81
2024/02/09 04:22:27;;;;;;;10.97;5.70;;;10.60;99.90;;;;;;4894777;29;36175;-81
2024/02/09 04:24:53;;;;;;;12.23;5.87;;;10.60;99.90;;;;;;4897772;29;38860;-81
2024/02/09 04:27:19;;;;;;;12.90;5.33;;;10.60;99.90;;;;;;4896861;29;38858;-80
2024/02/09 04:29:46;;;;;;;12.33;5.63;;;10.60;99.90;;;;;;4895361;29;36724;-80
2024/02/09 04:32:13;;;;;;;14.87;6.03;;;10.60;99.90;;;;;;4901178;29;36108;-81
2024/02/09 04:34:39;;;;;;;21.37;6.37;;;10.60;99.90;;;;;;4898258;29;39179;-82
2024/02/09 04:37:05;;;;;;;15.97;6.73;;;10.60;99.90;;;;;;4895589;29;37249;-81
2024/02/09 04:39:32;;;;;;;12.20;5.43;;;10.60;99.90;;;;;;4898399;29;38189;-80
2024/02/09 04:41:58;;;;;;;11.33;5.97;;;10.60;99.90;;;;;;4909414;29;37373;-81
2024/02/09 04:44:25;;;;;;;13.00;5.43;;;10.60;99.90;;;;;;4901344;29;38767;-80
2024/02/09 04:46:51;;;;;;;10.67;5.40;;;10.50;99.90;;;;;;4904392;29;38573;-80
2024/02/09 04:49:17;;;;;;;12.00;5.27;;;10.50;99.90;;;;;;4914798;28;38716;-81
2024/02/09 04:51:45;;;;;;;13.17;5.70;;;10.50;99.90;;;;;;4903584;29;37331;-80
2024/02/09 04:54:11;;;;;;;12.40;5.67;;;10.50;99.90;;;;;;4902015;29;37399;-80
2024/02/09 04:56:38;;;;;;;15.77;5.93;;;10.50;99.90;;;;;;4902064;29;38314;-80
2024/02/09 04:59:11;;;;;;;17.10;6.63;;;10.60;99.90;;;;;;4899554;29;37226;-81
2024/02/09 05:01:40;;;;;;;12.87;5.40;;;10.60;99.90;;;;;;4899507;29;37088;-81
2024/02/09 05:04:13;;;;;;;15.30;5.50;;;10.60;99.90;;;;;;4899149;29;37697;-80
2024/02/09 05:06:39;;;;;;;12.80;5.17;;;10.60;99.90;;;;;;4901442;29;38612;-81
2024/02/09 05:09:07;;;;;;;15.40;5.10;;;10.70;99.90;;;;;;4906311;29;36921;-80
2024/02/09 05:11:36;;;;;;;12.67;5.10;;;10.70;99.90;;;;;;4900098;29;37239;-80
2024/02/09 05:14:05;;;;;;;11.63;5.60;;;10.70;99.90;;;;;;4897271;29;39191;-82
2024/02/09 05:16:32;;;;;;;9.77;5.10;;;10.80;99.90;;;;;;4901583;29;37672;-80
2024/02/09 05:19:01;;;;;;;12.07;4.83;;;10.70;99.90;;;;;;4896275;29;37051;-81
2024/02/09 05:21:28;;;;;;;10.63;4.73;;;10.70;99.90;;;;;;4901722;29;48041;-81
2024/02/09 05:23:54;;;;;;;13.73;4.70;;;10.80;99.90;;;;;;4908224;29;39422;-81
2024/02/09 05:26:20;;;;;;;11.33;4.80;;;10.80;99.90;;;;;;4909372;29;38384;-81
2024/02/09 05:28:48;;;;;;;14.50;4.70;;;10.80;99.90;;;;;;4907477;29;37999;-80
2024/02/09 05:31:16;;;;;;;11.50;4.73;;;10.90;99.90;;;;;;4894957;29;37001;-80
2024/02/09 05:33:43;;;;;;;16.13;4.30;;;10.90;99.90;;;;;;4909669;29;38824;-80
2024/02/09 05:36:27;;;;;;;11.27;4.50;;;10.90;99.90;;;;;;4902321;29;38354;-81
2024/02/09 05:39:00;;;;;;;10.77;4.40;;;10.90;99.90;;;;;;4894230;29;37042;-81
2024/02/09 05:41:26;;;;;;;11.80;4.10;;;10.90;99.90;;;;;;4901109;29;47023;-80
2024/02/09 05:43:54;;;;;;;14.37;4.43;;;10.90;99.90;;;;;;4897102;29;37812;-81
2024/02/09 05:46:20;;;;;;;15.20;4.40;;;10.90;99.90;;;;;;4890358;29;38590;-80
2024/02/09 05:48:49;;;;;;;19.10;5.57;;;10.90;99.90;;;;;;4889261;29;39181;-80
2024/02/09 05:51:21;;;;;;;14.13;4.73;;;10.90;99.90;;;;;;4895197;29;36697;-80
2024/02/09 05:53:55;;;;;;;15.80;5.07;;;10.90;99.90;;;;;;4899920;29;38061;-80
2024/02/09 05:56:25;;;;;;;18.03;4.47;;;11.00;99.90;;;;;;4887602;29;38191;-80
2024/02/09 05:58:53;;;;;;;11.37;4.10;;;11.00;99.90;;;;;;4898719;29;36851;-80
2024/02/09 06:01:31;;;;;;;13.20;4.10;;;11.10;99.90;;;;;;4909364;29;35724;-80
2024/02/09 06:03:58;;;;;;;15.77;4.70;;;11.00;99.90;;;;;;4904999;29;39994;-80
2024/02/09 06:06:24;;;;;;;14.03;4.80;;;11.00;99.90;;;;;;4898695;29;38332;-80
2024/02/09 06:08:51;;;;;;;11.73;4.13;;;11.10;99.90;;;;;;4898101;29;36871;-79
2024/02/09 06:11:17;;;;;;;16.23;4.07;;;11.10;99.90;;;;;;4899963;29;38403;-82
2024/02/09 06:13:47;;;;;;;13.57;3.80;;;11.10;99.90;;;;;;4898223;29;38305;-80
2024/02/09 06:16:20;;;;;;;15.17;3.43;;;11.10;99.90;;;;;;4892487;29;38111;-80
2024/02/09 06:18:49;;;;;;;10.17;3.47;;;11.20;99.90;;;;;;4896148;29;36520;-80
2024/02/09 06:21:22;;;;;;;13.63;4.30;;;11.20;99.90;;;;;;4897218;29;37368;-80
2024/02/09 06:23:49;;;;;;;13.57;4.03;;;11.20;99.90;;;;;;4895575;29;37850;-79
2024/02/09 06:26:16;;;;;;;13.23;4.10;;;11.10;99.90;;;;;;4898291;29;39090;-80
2024/02/09 06:28:54;;;;;;;15.07;4.73;;;11.00;99.90;;;;;;4893709;29;38259;-78
2024/02/09 06:31:25;;;;;;;16.70;5.33;;;10.90;99.90;;;;;;4892897;29;38482;-80
2024/02/09 06:33:54;;;;;;;14.43;4.00;;;10.90;99.90;;;;;;4900691;29;39013;-80
2024/02/09 06:36:23;;;;;;;15.47;4.67;;;10.80;99.90;;;;;;4899764;29;38349;-81
2024/02/09 06:38:49;;;;;;;17.10;5.30;;;10.90;99.90;;;;;;4890215;29;37199;-80
2024/02/09 06:41:16;;;;;;;10.07;3.97;;;10.90;99.90;;;;;;4916218;29;36189;-80
2024/02/09 06:43:42;;;;;;;16.57;4.90;;;10.90;99.90;;;;;;4898968;29;39821;-80
2024/02/09 06:46:09;;;;;;;9.53;4.07;;;10.90;99.90;;;;;;4894280;29;38407;-80
2024/02/09 06:48:35;;;;;;;23.70;5.00;;;10.90;99.90;;;;;;4908105;29;37186;-81
2024/02/09 06:51:04;;;;;;;11.00;4.33;;;10.90;99.90;;;;;;4893949;29;35843;-79
2024/02/09 06:53:30;;;;;;;17.70;5.50;;;10.90;99.90;;;;;;4889978;29;47329;-80
2024/02/09 06:55:56;;;;;;;14.10;4.00;;;11.00;99.90;;;;;;4909800;29;37577;-79
2024/02/09 06:58:23;;;;;;;14.50;4.10;;;11.00;99.90;;;;;;4908770;29;38344;-79
2024/02/09 07:00:53;;;;;;;10.43;4.37;;;11.10;99.90;;;;;;4895602;29;36039;-79
2024/02/09 07:03:21;;;;;;;13.60;4.13;;;11.10;99.90;;;;;;4896164;29;37666;-79
2024/02/09 07:05:53;;;;;;;14.47;4.63;;;11.10;99.90;;;;;;4913731;29;37829;-79
2024/02/09 07:08:29;;;;;;;13.60;4.03;;;11.10;99.90;;;;;;4899979;29;37396;-79
2024/02/09 07:10:57;;;;;;;13.60;4.20;;;11.20;99.90;;;;;;4900185;29;37400;-81
2024/02/09 07:13:23;;;;;;;15.27;4.20;;;11.20;99.90;;;;;;4900429;29;38969;-79
2024/02/09 07:15:49;;;;;;;10.33;4.37;;;11.20;99.90;;;;;;4896993;29;37545;-81
2024/02/09 07:18:15;;;;;;;8.77;4.03;;;11.20;99.90;;;;;;4899035;29;39646;-82
2024/02/09 07:20:42;;;;;;;11.40;3.80;;;11.30;99.90;;;;;;4895817;29;36221;-81
2024/02/09 07:23:08;;;;;;;13.60;4.73;;;11.30;99.90;;;;;;4897113;29;39044;-80
2024/02/09 07:25:34;;;;;;;10.23;4.03;;;11.30;99.90;;;;;;4889979;29;38195;-80
2024/02/09 07:28:01;;;;;;;11.40;3.87;;;11.30;99.90;;;;;;4896237;29;38312;-81
2024/02/09 07:30:27;;;;;;;9.40;4.25;;;11.30;99.90;;;;;;4904084;29;37589;-81
2024/02/09 07:32:53;;;;;;;9.67;3.70;;;11.20;99.90;;;;;;4912705;29;38285;-81
2024/02/09 07:35:19;;;;;;;13.43;4.70;;;11.20;99.90;;;;;;4913086;29;37081;-81
2024/02/09 07:37:45;;;;;;;12.23;3.70;;;11.20;99.90;;;;;;4894112;29;37260;-80
2024/02/09 07:40:16;;;;;;;8.03;3.57;;;11.20;99.90;;;;;;4899892;29;37166;-81
2024/02/09 07:42:43;;;;;;;9.87;3.93;;;11.20;99.90;;;;;;4899554;29;38137;-81
2024/02/09 07:45:15;;;;;;;11.73;3.70;;;11.20;99.90;;;;;;4898691;29;37754;-80
2024/02/09 07:47:44;;;;;;;8.85;4.20;;;11.20;99.90;;;;;;4909553;29;38788;-81
2024/02/09 07:50:11;;;;;;;12.70;4.23;;;11.20;99.90;;;;;;4902553;29;37850;-81
2024/02/09 07:52:38;;;;;;;9.47;3.67;;;11.20;99.90;;;;;;4905871;29;37817;-81
2024/02/09 07:55:06;;;;;;;11.23;3.70;;;11.20;99.90;;;;;;4913360;29;38972;-82
2024/02/09 07:57:33;;;;;;;10.27;3.40;;;11.20;99.90;;;;;;4902586;29;47397;-81
2024/02/09 08:00:00;;;;;;;10.43;3.50;;;11.20;99.90;;;;;;4917848;29;36216;-82
2024/02/09 08:02:28;;;;;;;12.37;4.10;;;11.30;99.90;;;;;;4907676;29;39104;-81
2024/02/09 08:04:55;;;;;;;10.07;3.90;;;11.30;99.90;;;;;;4920907;29;38033;-82
2024/02/09 08:07:21;;;;;;;7.90;3.78;;;11.20;99.90;;;;;;4908818;29;37627;-81
2024/02/09 08:09:47;;;;;;;8.80;3.40;;;11.20;99.90;;;;;;4905841;29;36925;-81
2024/02/09 08:12:13;;;;;;;8.03;3.80;;;11.20;99.90;;;;;;4903565;29;38831;-81
2024/02/09 08:14:39;;;;;;;10.53;3.53;;;11.20;99.90;;;;;;4902396;29;37751;-82
2024/02/09 08:17:06;;;;;;;12.37;5.50;;;11.10;99.90;;;;;;4904049;29;40411;-81
2024/02/09 08:19:32;;;;;;;16.20;3.90;;;11.20;99.90;;;;;;4902384;29;37063;-82
2024/02/09 08:21:59;;;;;;;16.07;4.00;;;11.20;99.90;;;;;;4907901;29;37680;-82
2024/02/09 08:24:25;;;;;;;8.80;3.50;;;11.20;99.90;;;;;;4902497;29;38669;-82
2024/02/09 08:26:55;;;;;;;13.23;3.63;;;11.20;99.90;;;;;;4895118;29;37216;-81
2024/02/09 08:29:22;;;;;;;8.80;3.97;;;11.30;99.90;;;;;;4893832;29;36643;-81
2024/02/09 08:31:48;;;;;;;12.27;3.53;;;11.30;99.90;;;;;;4904968;29;38406;-81
2024/02/09 08:34:14;;;;;;;13.23;3.83;;;11.30;99.90;;;;;;4906558;29;37665;-82
2024/02/09 08:36:41;;;;;;;15.33;4.10;;;11.30;99.90;;;;;;4903180;29;37523;-81
2024/02/09 08:39:07;;;;;;;10.07;3.23;;;11.30;99.90;;;;;;4905898;29;36058;-81
2024/02/09 08:41:36;;;;;;;6.40;3.30;;;11.30;99.90;;;;;;4921334;29;37447;-81
2024/02/09 08:44:04;;;;;;;9.33;3.83;;;11.30;99.90;;;;;;4907178;29;38906;-82
2024/02/09 08:46:31;;;;;;;12.50;3.50;;;11.30;99.90;;;;;;4902300;29;38205;-81
2024/02/09 08:48:57;;;;;;;7.63;2.97;;;11.30;99.90;;;;;;4905647;29;36554;-81
2024/02/09 08:51:24;;;;;;;11.83;3.53;;;11.30;99.90;;;;;;4903974;29;37784;-81
2024/02/09 08:53:50;;;;;;;8.75;3.63;;;11.30;99.90;;;;;;4906223;29;37577;-81
2024/02/09 08:56:16;;;;;;;9.90;4.30;;;11.40;99.90;;;;;;4909986;29;37160;-81
2024/02/09 08:58:45;;;;;;;9.20;3.87;;;11.40;99.90;;;;;;4931087;29;36181;-82
2024/02/09 09:01:12;;;;;;;12.53;4.57;;;11.30;99.90;;;;;;4905475;29;39846;-81
2024/02/09 09:03:38;;;;;;;9.30;3.70;;;11.30;99.90;;;;;;4923285;29;38610;-82
2024/02/09 09:06:05;;;;;;;8.97;3.73;;;11.30;99.90;;;;;;4908619;29;38165;-82
2024/02/09 09:08:32;;;;;;;13.93;3.90;;;11.20;99.90;;;;;;4913445;29;36995;-82
2024/02/09 09:11:01;;;;;;;16.30;4.50;;;11.20;99.90;;;;;;4924957;28;37239;-80
2024/02/09 09:13:27;;;;;;;14.25;4.38;;;11.30;99.90;;;;;;4909039;29;47352;-80
2024/02/09 09:15:54;;;;;;;12.33;3.80;;;11.30;99.90;;;;;;4905324;29;38015;-82
2024/02/09 09:18:20;;;;;;;14.18;3.90;;;11.30;99.90;;;;;;4918441;29;38893;-79
2024/02/09 09:20:47;;;;;;;8.68;3.90;;;11.40;99.90;;;;;;4911773;29;39872;-81
2024/02/09 09:23:15;;;;;;;7.45;3.42;;;11.50;99.90;;;;;;4918078;29;39259;-81
2024/02/09 09:25:45;;;;;;;14.13;3.38;;;11.50;99.90;;;;;;4929909;29;38168;-81
2024/02/09 09:28:19;;;;;;;7.72;2.90;;;11.50;99.90;;;;;;4904726;29;36712;-81
2024/02/09 09:30:48;;;;;;;6.38;2.90;;;11.60;99.90;;;;;;4912707;29;40336;-81
2024/02/09 09:33:17;;;;;;;12.48;4.00;;;11.60;99.90;;;;;;4928310;29;37035;-82
2024/02/09 09:35:46;;;;;;;14.25;2.97;;;11.70;99.90;;;;;;4898107;29;38081;-80
2024/02/09 09:38:21;;;;;;;9.35;2.70;;;11.80;99.90;;;;;;4907679;29;37240;-81
2024/02/09 09:40:59;;;;;;;7.25;3.15;;;11.90;99.90;;;;;;4922013;29;41111;-80
2024/02/09 09:43:26;;;;;;;8.10;2.88;;;12.00;99.90;;;;;;4926889;29;38912;-80
2024/02/09 09:45:59;;;;;;;9.65;2.50;;;12.10;99.90;;;;;;4919091;29;38213;-80
2024/02/09 09:48:54;;;;;;;10.38;3.33;;;12.10;99.90;;;;;;4918956;29;48978;-81
2024/02/09 09:51:33;;;;;;;10.80;2.95;;;12.30;99.90;;;;;;4910279;29;40012;-81
2024/02/09 09:54:02;;;;;;;15.30;2.80;;;12.40;99.90;;;;;;4919323;29;38784;-82
2024/02/09 09:56:44;;;;;;;7.65;2.40;;;12.40;99.90;;;;;;4916025;29;48408;-82
2024/02/09 09:59:14;;;;;;;7.18;2.45;;;12.40;99.90;;;;;;4919619;29;36423;-81
2024/02/09 10:02:31;;;;;;;7.15;2.38;;;12.40;99.90;;;;;;4904614;29;48964;-80
2024/02/09 10:05:23;;;;;;;6.70;2.40;;;12.50;99.90;;;;;;4910272;29;39815;-82
2024/02/09 10:07:49;;;;;;;9.27;2.00;;;12.70;99.90;;;;;;4923490;23;38543;-76
2024/02/09 10:10:17;;;;;;;6.47;2.17;;;12.80;99.90;;;;;;4890192;29;37529;-76
2024/02/09 10:12:43;;;;;;;4.88;1.92;;;12.90;99.90;;;;;;4891897;29;37804;-75
2024/02/09 10:15:12;;;;;;;6.03;2.03;;;12.80;99.90;;;;;;4890314;29;38276;-75
2024/02/09 10:17:41;;;;;;;5.47;1.95;;;12.80;99.90;;;;;;4904536;29;38720;-76
2024/02/09 10:20:12;;;;;;;9.20;2.88;;;12.80;99.90;;;;;;4890866;29;37177;-76
2024/02/09 10:22:38;;;;;;;8.55;2.17;;;12.80;99.90;;;;;;4893680;29;38508;-76
2024/02/09 10:25:05;;;;;;;8.85;2.28;;;12.80;99.90;;;;;;4908407;29;37323;-76
2024/02/09 10:27:32;;;;;;;5.78;2.65;;;12.70;99.90;;;;;;4890455;29;38272;-77
2024/02/09 10:29:59;;;;;;;6.20;1.90;;;12.70;99.90;;;;;;4891966;29;36105;-76
2024/02/09 10:32:26;;;;;;;8.77;2.47;;;12.60;99.90;;;;;;4909287;29;37203;-76
2024/02/09 10:34:53;;;;;;;5.53;2.22;;;12.60;99.90;;;;;;4910659;29;37196;-76
2024/02/09 10:37:19;;;;;;;6.78;2.30;;;12.60;99.90;;;;;;4891502;29;38294;-76
2024/02/09 10:39:45;;;;;;;6.93;2.53;;;12.60;99.90;;;;;;4894559;29;36158;-76
2024/02/09 10:42:14;;;;;;;4.78;2.20;;;12.50;99.90;;;;;;4893788;29;38906;-75
2024/02/09 10:44:43;;;;;;;7.70;2.58;;;12.50;99.90;;;;;;4890691;29;37174;-75
2024/02/09 10:47:10;;;;;;;8.30;2.15;;;12.40;99.90;;;;;;4890850;29;37071;-75
2024/02/09 10:49:40;;;;;;;8.32;2.50;;;12.30;99.90;;;;;;4888950;29;38487;-76
2024/02/09 10:52:09;;;;;;;6.85;3.33;;;12.30;99.90;;;;;;4888557;29;37644;-74
2024/02/09 10:54:47;;;;;;;9.45;3.42;;;12.20;99.90;;;;;;4894121;29;37421;-76
2024/02/09 10:57:14;;;;;;;11.43;3.20;;;12.20;99.90;;;;;;4897216;29;37870;-77
2024/02/09 10:59:42;;;;;;;9.02;3.20;;;12.10;99.90;;;;;;4890477;29;37425;-75
2024/02/09 11:02:09;;;;;;;8.75;3.05;;;12.10;99.90;;;;;;4888734;29;38558;-76
2024/02/09 11:04:36;;;;;;;11.13;3.28;;;12.00;99.90;;;;;;4907254;29;38049;-75
2024/02/09 11:07:02;;;;;;;13.25;3.15;;;12.10;99.90;;;;;;4890224;29;37758;-75
2024/02/09 11:09:29;;;;;;;12.80;3.90;;;12.10;99.90;;;;;;4866941;29;47343;-75
2024/02/09 11:12:04;;;;;;;11.65;3.60;;;12.10;99.90;;;;;;4889747;29;39851;-75
2024/02/09 11:14:32;;;;;;;13.07;3.63;;;12.10;99.90;;;;;;4889180;29;48374;-75
2024/02/09 11:17:06;;;;;;;16.15;4.45;;;12.20;99.90;;;;;;4887795;29;39020;-75
2024/02/09 11:19:40;;;;;;;16.98;4.22;;;12.10;99.90;;;;;;4890985;29;49924;-77
2024/02/09 11:22:10;;;;;;;11.52;3.28;;;12.10;99.90;;;;;;4890859;29;37950;-75
2024/02/09 11:24:37;;;;;;;9.50;3.05;;;12.20;99.90;;;;;;4898727;29;37677;-77
2024/02/09 11:27:05;;;;;;;7.28;2.78;;;12.30;99.90;;;;;;4888408;29;38181;-75
2024/02/09 11:29:32;;;;;;;13.95;3.22;;;12.30;99.90;;;;;;4891998;29;37091;-75
2024/02/09 11:32:02;;;;;;;12.93;3.65;;;12.30;99.90;;;;;;4891635;29;38481;-75
2024/02/09 11:34:33;;;;;;;10.73;3.42;;;12.30;99.90;;;;;;4889671;29;47320;-77
2024/02/09 11:37:00;;;;;;;7.28;2.53;;;12.30;99.90;;;;;;4890924;29;37859;-76
2024/02/09 11:39:27;;;;;;;9.85;2.10;;;12.30;99.90;;;;;;4888599;29;36594;-75
2024/02/09 11:41:54;;;;;;;6.63;2.40;;;12.30;99.90;;;;;;4891529;29;37708;-75
2024/02/09 11:44:21;;;;;;;8.07;2.47;;;12.40;99.90;;;;;;4889743;29;38688;-76
2024/02/09 11:46:49;;;;;;;6.63;2.58;;;12.40;99.90;;;;;;4892747;29;38225;-77
2024/02/09 11:49:15;;;;;;;8.07;2.50;;;12.40;99.90;;;;;;4884423;29;36220;-77
2024/02/09 11:51:41;;;;;;;10.10;3.05;;;12.40;99.90;;;;;;4890096;29;39890;-76
2024/02/09 11:54:08;;;;;;;5.95;2.20;;;12.40;99.90;;;;;;4886092;29;39280;-76
2024/02/09 11:56:37;;;;;;;6.25;2.22;;;12.50;99.90;;;;;;4890325;29;38072;-75
2024/02/09 11:59:04;;;;;;;7.60;2.47;;;12.60;99.90;;;;;;4902642;29;37556;-74
2024/02/09 12:01:31;;;;;;;9.68;2.65;;;12.70;99.90;;;;;;4899916;29;39313;-76
2024/02/09 12:03:58;;;;;;;6.82;2.47;;;12.60;99.90;;;;;;4902914;29;37823;-76
2024/02/09 12:06:27;;;;;;;7.80;2.60;;;12.60;99.90;;;;;;4888052;29;36977;-76
2024/02/09 12:08:53;;;;;;;7.85;2.10;;;12.70;99.90;;;;;;4888732;29;37008;-76
2024/02/09 12:11:20;;;;;;;9.85;2.40;;;12.80;99.90;;;;;;4879894;29;38238;-76
2024/02/09 12:13:47;;;;;;;10.30;1.88;;;12.80;99.90;;;;;;4895861;29;38621;-74
2024/02/09 12:16:17;;;;;;;8.07;2.58;;;12.80;99.90;;;;;;4892723;29;37941;-76
2024/02/09 12:18:45;;;;;;;8.93;2.50;;;12.60;99.90;;;;;;4892271;29;36415;-75
2024/02/09 12:21:11;;;;;;;9.60;2.97;;;12.70;99.90;;;;;;4901652;29;39001;-76
2024/02/09 12:23:38;;;;;;;11.73;2.90;;;12.70;99.90;;;;;;4895193;29;39237;-76
2024/02/09 12:26:08;;;;;;;8.40;2.33;;;12.80;99.90;;;;;;4889433;29;37135;-76
2024/02/09 12:28:35;;;;;;;9.00;2.03;;;12.90;99.90;;;;;;4889527;29;37637;-76
2024/02/09 12:31:12;;;;;;;7.88;2.35;;;13.00;99.90;;;;;;4892506;29;39698;-76
2024/02/09 12:33:46;;;;;;;9.65;1.88;;;13.10;99.90;;;;;;4892034;29;37252;-76
2024/02/09 12:36:20;;;;;;;9.02;2.08;;;13.10;99.90;;;;;;4890470;29;38913;-76
2024/02/09 12:39:05;;;;;;;8.80;2.58;;;13.10;99.90;;;;;;4890272;29;36319;-76
2024/02/09 12:41:31;;;;;;;7.75;2.08;;;13.10;99.90;;;;;;4908836;29;47121;-76
2024/02/09 12:44:01;;;;;;;7.90;2.10;;;13.00;99.90;;;;;;4894961;29;39264;-76
2024/02/09 12:46:27;;;;;;;10.70;2.25;;;12.90;99.90;;;;;;4894988;29;39183;-76
2024/02/09 12:48:55;;;;;;;12.38;2.60;;;13.00;99.90;;;;;;4915252;29;38247;-75
2024/02/09 12:51:22;;;;;;;5.75;2.05;;;13.00;99.90;;;;;;4892303;29;39616;-75
2024/02/09 12:53:49;;;;;;;9.48;2.40;;;13.00;99.90;;;;;;4911457;28;39647;-76
2024/02/09 12:56:17;;;;;;;9.65;1.70;;;13.10;99.90;;;;;;4907338;29;38845;-76
2024/02/09 12:58:44;;;;;;;12.75;1.92;;;13.20;99.90;;;;;;4892226;29;38080;-76
2024/02/09 13:01:11;;;;;;;7.78;1.77;;;13.20;99.90;;;;;;4894200;29;38768;-75
2024/02/09 13:03:40;;;;;;;6.40;1.50;;;13.30;99.90;;;;;;4891271;29;38802;-76
2024/02/09 13:06:07;;;;;;;5.03;1.50;;;13.30;99.90;;;;;;4892254;29;38355;-76
2024/02/09 13:08:33;;;;;;;6.03;1.42;;;13.30;99.90;;;;;;4893472;29;36255;-76
2024/02/09 13:11:00;;;;;;;7.38;1.30;;;13.30;99.90;;;;;;4907953;29;40795;-76
2024/02/09 13:13:26;;;;;;;7.57;1.77;;;13.40;99.90;;;;;;4893655;29;39278;-76
2024/02/09 13:15:52;;;;;;;5.60;1.70;;;13.30;99.90;;;;;;4892743;29;38405;-76
2024/02/09 13:18:18;;;;;;;8.30;1.77;;;13.40;99.90;;;;;;4894182;29;37606;-77
2024/02/09 13:20:45;;;;;;;9.82;2.15;;;13.30;99.90;;;;;;4896260;29;40518;-76
2024/02/09 13:23:12;;;;;;;4.78;1.20;;;13.30;99.90;;;;;;4894311;29;39104;-77
2024/02/09 13:25:40;;;;;;;8.82;1.80;;;13.30;99.90;;;;;;4892986;29;36929;-76
2024/02/09 13:28:07;;;;;;;5.00;1.67;;;13.20;99.90;;;;;;4893500;29;37407;-76
2024/02/09 13:30:34;;;;;;;6.93;1.92;;;13.20;99.90;;;;;;4893394;29;39338;-76
2024/02/09 13:33:00;;;;;;;7.10;1.83;;;13.30;99.90;;;;;;4894005;29;39530;-76
2024/02/09 13:35:28;;;;;;;8.00;2.05;;;13.30;99.90;;;;;;4906814;29;40692;-76
2024/02/09 13:37:55;;;;;;;8.23;1.95;;;13.30;99.90;;;;;;4892189;29;35727;-77
2024/02/09 13:40:21;;;;;;;10.32;1.88;;;13.30;99.90;;;;;;4892246;29;39120;-77
2024/02/09 13:42:49;;;;;;;8.82;2.00;;;13.30;99.90;;;;;;4895390;29;38426;-76
2024/02/09 13:45:17;;;;;;;9.05;2.22;;;13.30;99.90;;;;;;4889191;29;39018;-76
2024/02/09 13:47:44;;;;;;;8.80;1.70;;;13.30;99.90;;;;;;4906319;29;38509;-77
2024/02/09 13:50:11;;;;;;;5.35;1.65;;;13.30;99.90;;;;;;4902721;29;37823;-76
2024/02/09 13:52:43;;;;;;;7.10;2.35;;;13.40;99.90;;;;;;4893210;29;38385;-76
2024/02/09 13:55:13;;;;;;;7.57;2.17;;;13.40;99.90;;;;;;4894325;29;39183;-75
2024/02/09 13:57:47;;;;;;;11.82;2.38;;;13.50;99.90;;;;;;4897836;29;36191;-76
2024/02/09 14:00:16;;;;;;;8.82;2.10;;;13.60;99.90;;;;;;4893031;29;37933;-75
2024/02/09 14:02:43;;;;;;;9.60;2.10;;;13.80;99.90;;;;;;4914097;29;38763;-76
2024/02/09 14:05:09;;;;;;;7.80;1.80;;;13.80;99.90;;;;;;4898793;29;38123;-77
2024/02/09 14:07:40;;;;;;;8.57;1.80;;;13.90;97.70;;;;;;4898050;29;35536;-76
2024/02/09 14:10:08;;;;;;;9.50;1.50;;;13.70;94.10;;;;;;4912134;29;37515;-77
2024/02/09 14:12:34;;;;;;;8.55;1.50;;;13.60;97.30;;;;;;4897725;29;38579;-75
2024/02/09 14:15:01;;;;;;;6.00;1.70;;;13.50;97.90;;;;;;4900592;29;40192;-75
2024/02/09 14:17:31;;;;;;;5.68;1.77;;;13.50;99.90;;;;;;4893744;29;36346;-75
2024/02/09 14:19:58;;;;;;;8.95;2.00;;;13.50;99.90;;;;;;4891798;29;39381;-76
2024/02/09 14:22:24;;;;;;;7.22;1.88;;;13.40;99.80;;;;;;4893064;29;38652;-76
2024/02/09 14:24:50;;;;;;;9.65;1.33;;;13.50;99.90;;;;;;4893990;29;38715;-76
2024/02/09 14:27:17;;;;;;;8.25;1.85;;;13.50;98.50;;;;;;4893971;29;38101;-76
2024/02/09 14:29:45;;;;;;;8.77;1.90;;;13.50;99.00;;;;;;4894188;29;39439;-76
2024/02/09 14:32:12;;;;;;;13.75;1.70;;;13.50;99.10;;;;;;4892499;29;38371;-76